Time,TemperatureF,DewpointF,PressureIn,WindDirection,WindDirectionDegrees,WindSpeedMPH,WindSpeedGustMPH,Humidity,HourlyPrecipIn,Conditions,Clouds,dailyrainin,SoftwareType,DateUTC
2013-06-08 00:02:00,58.5,48.0,30.03,South,180,3.1,3.8,68,0.00,,---,0.00,VWS V14.01,2013-06-07 14:02:00,
2013-06-08 00:07:00,58.5,48.0,30.03,SSE,158,2.7,7.4,68,0.00,,---,0.00,VWS V14.01,2013-06-07 14:07:00,
2013-06-08 00:12:00,58.5,48.0,30.03,SE,135,3.4,3.4,68,0.00,,---,0.00,VWS V14.01,2013-06-07 14:12:00,
2013-06-08 00:17:00,58.6,48.1,30.03,SSW,202,3.8,3.8,68,0.00,,---,0.00,VWS V14.01,2013-06-07 14:17:00,
2013-06-08 00:22:00,58.8,48.3,30.03,SSE,158,4.5,4.5,68,0.00,,---,0.00,VWS V14.01,2013-06-07 14:22:00,
2013-06-08 00:27:00,59.0,48.1,30.03,South,180,1.6,7.6,67,0.00,,---,0.00,VWS V14.01,2013-06-07 14:27:00,
2013-06-08 00:32:00,59.0,48.1,30.03,ESE,112,4.3,4.3,67,0.00,,---,0.00,VWS V14.01,2013-06-07 14:32:00,
2013-06-08 00:37:00,59.2,48.2,30.03,SSW,202,4.3,4.3,67,0.00,,---,0.00,VWS V14.01,2013-06-07 14:37:00,
2013-06-08 00:42:00,59.2,48.6,30.03,SE,135,4.7,4.7,68,0.00,,---,0.00,VWS V14.01,2013-06-07 14:42:00,
2013-06-08 00:47:00,59.2,48.6,30.03,South,180,4.3,7.8,68,0.00,,---,0.00,VWS V14.01,2013-06-07 14:47:00,
2013-06-08 00:52:00,59.2,49.0,30.03,SSE,158,1.6,6.7,69,0.00,,---,0.00,VWS V14.01,2013-06-07 14:52:00,
2013-06-08 00:57:00,59.2,49.4,30.03,SE,135,5.8,5.8,70,0.00,,---,0.00,VWS V14.01,2013-06-07 14:57:00,
2013-06-08 01:02:00,59.4,49.6,30.03,ESE,112,3.4,3.8,70,0.00,,---,0.00,VWS V14.01,2013-06-07 15:02:00,
2013-06-08 01:07:00,59.4,50.0,30.03,South,180,3.6,3.6,71,0.00,,---,0.00,VWS V14.01,2013-06-07 15:07:00,
2013-06-08 01:12:00,59.4,49.6,30.03,SSE,158,3.1,3.1,70,0.00,,---,0.00,VWS V14.01,2013-06-07 15:12:00,
2013-06-08 01:17:00,59.4,50.0,30.03,South,180,2.0,2.0,71,0.00,,---,0.00,VWS V14.01,2013-06-07 15:17:00,
2013-06-08 01:22:00,59.4,50.0,30.03,SSE,158,1.6,1.6,71,0.00,,---,0.00,VWS V14.01,2013-06-07 15:22:00,
2013-06-08 01:27:00,59.4,50.0,30.03,SSE,158,2.5,4.9,71,0.00,,---,0.00,VWS V14.01,2013-06-07 15:27:00,
2013-06-08 01:32:00,59.4,50.3,30.03,SE,135,4.3,4.3,72,0.00,,---,0.00,VWS V14.01,2013-06-07 15:32:00,
2013-06-08 01:37:00,59.4,50.0,30.03,SSE,158,0.9,0.9,71,0.00,,---,0.00,VWS V14.01,2013-06-07 15:37:00,
2013-06-08 01:42:00,59.4,50.3,30.03,SE,135,1.6,2.0,72,0.00,,---,0.00,VWS V14.01,2013-06-07 15:42:00,
2013-06-08 01:47:00,59.2,50.5,30.03,South,180,5.8,5.8,73,0.00,,---,0.00,VWS V14.01,2013-06-07 15:47:00,
2013-06-08 01:52:00,59.0,51.1,30.03,SW,225,4.0,4.7,75,0.00,,---,0.00,VWS V14.01,2013-06-07 15:52:00,
2013-06-08 01:57:00,58.8,51.3,30.03,SW,225,6.3,6.3,76,0.00,,---,0.00,VWS V14.01,2013-06-07 15:57:00,
2013-06-08 02:02:00,58.5,51.3,30.03,SSE,158,2.2,2.5,77,0.00,,---,0.00,VWS V14.01,2013-06-07 16:02:00,
2013-06-08 02:07:00,58.5,52.0,30.03,SE,135,3.1,3.1,79,0.00,,---,0.00,VWS V14.01,2013-06-07 16:07:00,
2013-06-08 02:12:00,58.5,52.0,30.03,South,180,2.7,2.7,79,0.00,,---,0.00,VWS V14.01,2013-06-07 16:12:00,
2013-06-08 02:17:00,58.5,52.0,30.03,NW,315,2.5,2.5,79,0.00,,---,0.00,VWS V14.01,2013-06-07 16:17:00,
2013-06-08 02:22:00,58.5,52.3,30.03,SSE,158,3.1,3.4,80,0.00,,---,0.00,VWS V14.01,2013-06-07 16:22:00,
2013-06-08 02:27:00,58.3,52.5,30.03,SSE,158,3.1,3.1,81,0.00,,---,0.00,VWS V14.01,2013-06-07 16:27:00,
2013-06-08 02:32:00,58.5,52.7,30.03,SE,135,2.0,2.2,81,0.00,,---,0.00,VWS V14.01,2013-06-07 16:32:00,
2013-06-08 02:37:00,58.3,52.5,30.03,SW,225,2.5,2.5,81,0.00,,---,0.00,VWS V14.01,2013-06-07 16:37:00,
2013-06-08 02:42:00,58.3,52.8,30.03,SSE,158,4.0,4.0,82,0.00,,---,0.00,VWS V14.01,2013-06-07 16:42:00,
2013-06-08 02:47:00,58.3,52.8,30.03,South,180,3.4,3.4,82,0.00,,---,0.00,VWS V14.01,2013-06-07 16:47:00,
2013-06-08 02:52:00,58.3,53.2,30.03,SSE,158,2.5,2.5,83,0.00,,---,0.00,VWS V14.01,2013-06-07 16:52:00,
2013-06-08 02:57:00,58.3,53.2,30.03,South,180,2.9,2.9,83,0.00,,---,0.00,VWS V14.01,2013-06-07 16:57:00,
2013-06-08 03:02:00,58.3,52.8,30.03,SE,135,3.4,3.4,82,0.00,,---,0.00,VWS V14.01,2013-06-07 17:02:00,
2013-06-08 03:07:00,58.3,53.2,30.03,SSE,158,1.1,2.0,83,0.00,,---,0.00,VWS V14.01,2013-06-07 17:07:00,
2013-06-08 03:12:00,58.3,54.1,30.03,South,180,3.4,3.4,86,0.00,,---,0.00,VWS V14.01,2013-06-07 17:12:00,
2013-06-08 03:17:00,58.3,53.5,30.03,SSE,158,2.9,2.9,84,0.00,,---,0.00,VWS V14.01,2013-06-07 17:17:00,
2013-06-08 03:22:00,58.3,53.5,30.03,SSE,158,2.9,2.9,84,0.00,,---,0.00,VWS V14.01,2013-06-07 17:22:00,
2013-06-08 03:27:00,58.3,53.5,30.03,SSE,158,2.9,2.9,84,0.00,,---,0.00,VWS V14.01,2013-06-07 17:27:00,
2013-06-08 03:32:00,58.3,53.5,30.03,South,180,2.0,2.0,84,0.00,,---,0.00,VWS V14.01,2013-06-07 17:32:00,
2013-06-08 03:37:00,58.3,53.5,30.06,South,180,1.3,1.3,84,0.00,,---,0.00,VWS V14.01,2013-06-07 17:37:00,
2013-06-08 03:42:00,58.3,54.1,30.06,SE,135,2.2,2.2,86,0.00,,---,0.00,VWS V14.01,2013-06-07 17:42:00,
2013-06-08 03:47:00,58.1,54.3,30.06,South,180,0.9,3.1,87,0.00,,---,0.00,VWS V14.01,2013-06-07 17:47:00,
2013-06-08 03:52:00,58.1,54.3,30.06,WSW,248,2.5,2.5,87,0.04,,---,0.04,VWS V14.01,2013-06-07 17:52:00,
2013-06-08 03:57:00,58.1,53.9,30.06,SE,135,1.3,3.4,86,0.04,,---,0.04,VWS V14.01,2013-06-07 17:57:00,
2013-06-08 04:02:00,58.1,53.9,30.06,South,180,1.1,1.6,86,0.04,,---,0.04,VWS V14.01,2013-06-07 18:02:00,
2013-06-08 04:07:00,58.1,53.9,30.06,SE,135,2.5,2.5,86,0.04,,---,0.04,VWS V14.01,2013-06-07 18:07:00,
2013-06-08 04:12:00,58.1,54.6,30.06,South,180,2.9,2.9,88,0.04,,---,0.04,VWS V14.01,2013-06-07 18:12:00,
2013-06-08 04:17:00,57.9,54.1,30.06,South,180,1.6,3.4,87,0.04,,---,0.04,VWS V14.01,2013-06-07 18:17:00,
2013-06-08 04:22:00,57.9,54.1,30.06,SSE,158,1.6,1.6,87,0.04,,---,0.04,VWS V14.01,2013-06-07 18:22:00,
2013-06-08 04:27:00,57.9,54.1,30.06,SE,135,2.5,3.4,87,0.04,,---,0.04,VWS V14.01,2013-06-07 18:27:00,
2013-06-08 04:32:00,57.9,54.1,30.06,ESE,112,3.4,3.4,87,0.04,,---,0.04,VWS V14.01,2013-06-07 18:32:00,
2013-06-08 04:38:00,57.9,54.1,30.06,South,180,2.0,2.0,87,0.04,,---,0.04,VWS V14.01,2013-06-07 18:38:00,
2013-06-08 04:43:00,57.9,54.1,30.06,ESE,112,2.7,2.7,87,0.04,,---,0.04,VWS V14.01,2013-06-07 18:43:00,
2013-06-08 04:47:00,57.9,54.1,30.06,WNW,292,2.5,2.5,87,0.04,,---,0.04,VWS V14.01,2013-06-07 18:47:00,
2013-06-08 04:53:00,57.7,54.2,30.06,SE,135,2.2,2.2,88,0.00,,---,0.04,VWS V14.01,2013-06-07 18:53:00,
2013-06-08 04:58:00,57.7,54.2,30.06,East,90,1.6,1.6,88,0.00,,---,0.04,VWS V14.01,2013-06-07 18:58:00,
2013-06-08 05:03:00,57.7,54.2,30.06,SE,135,2.7,2.7,88,0.00,,---,0.04,VWS V14.01,2013-06-07 19:03:00,
2013-06-08 05:08:00,57.7,54.2,30.06,SSW,202,1.6,1.6,88,0.00,,---,0.04,VWS V14.01,2013-06-07 19:08:00,
2013-06-08 05:13:00,57.7,54.2,30.06,SSW,202,0.0,0.0,88,0.00,,---,0.04,VWS V14.01,2013-06-07 19:13:00,
2013-06-08 05:18:00,57.7,54.2,30.06,SW,225,2.2,2.9,88,0.00,,---,0.04,VWS V14.01,2013-06-07 19:18:00,
2013-06-08 05:23:00,57.7,54.2,30.09,WSW,248,2.7,2.7,88,0.00,,---,0.04,VWS V14.01,2013-06-07 19:23:00,
2013-06-08 05:28:00,57.7,54.2,30.09,SSE,158,0.0,0.0,88,0.00,,---,0.04,VWS V14.01,2013-06-07 19:28:00,
2013-06-08 05:33:00,57.7,54.2,30.09,SSW,202,2.2,3.8,88,0.00,,---,0.04,VWS V14.01,2013-06-07 19:33:00,
2013-06-08 05:38:00,57.7,54.2,30.09,SSE,158,1.6,1.6,88,0.00,,---,0.04,VWS V14.01,2013-06-07 19:38:00,
2013-06-08 05:43:00,57.7,54.2,30.09,South,180,0.0,0.0,88,0.00,,---,0.04,VWS V14.01,2013-06-07 19:43:00,
2013-06-08 05:48:00,57.7,54.2,30.09,ESE,112,1.1,1.1,88,0.00,,---,0.04,VWS V14.01,2013-06-07 19:48:00,
2013-06-08 05:53:00,57.9,54.4,30.09,SSE,158,1.3,1.6,88,0.00,,---,0.04,VWS V14.01,2013-06-07 19:53:00,
2013-06-08 05:58:00,57.9,54.4,30.09,South,180,1.3,2.0,88,0.00,,---,0.04,VWS V14.01,2013-06-07 19:58:00,
2013-06-08 06:03:00,57.7,54.2,30.09,SSE,158,1.6,1.6,88,0.00,,---,0.04,VWS V14.01,2013-06-07 20:03:00,
2013-06-08 06:08:00,57.7,54.5,30.09,West,270,0.0,1.3,89,0.00,,---,0.04,VWS V14.01,2013-06-07 20:08:00,
2013-06-08 06:13:00,57.7,54.5,30.09,SW,225,0.0,0.0,89,0.00,,---,0.04,VWS V14.01,2013-06-07 20:13:00,
2013-06-08 06:19:00,57.7,54.5,30.09,SW,225,2.5,2.5,89,0.00,,---,0.04,VWS V14.01,2013-06-07 20:19:00,
2013-06-08 06:24:00,57.7,54.5,30.09,SSE,158,0.0,0.0,89,0.00,,---,0.04,VWS V14.01,2013-06-07 20:24:00,
2013-06-08 06:29:00,57.7,54.5,30.09,South,180,1.6,1.6,89,0.00,,---,0.04,VWS V14.01,2013-06-07 20:29:00,
2013-06-08 06:34:00,57.7,54.5,30.09,SW,225,0.0,0.0,89,0.00,,---,0.04,VWS V14.01,2013-06-07 20:34:00,
2013-06-08 06:39:00,57.7,54.5,30.12,NNW,338,1.1,1.1,89,0.00,,---,0.04,VWS V14.01,2013-06-07 20:39:00,
2013-06-08 06:44:00,57.7,54.5,30.12,SW,225,0.0,0.9,89,0.00,,---,0.04,VWS V14.01,2013-06-07 20:44:00,
2013-06-08 06:49:00,57.7,54.5,30.12,West,270,0.0,0.0,89,0.00,,---,0.04,VWS V14.01,2013-06-07 20:49:00,
2013-06-08 06:54:00,57.7,54.5,30.12,NW,315,0.0,0.0,89,0.00,,---,0.04,VWS V14.01,2013-06-07 20:54:00,
2013-06-08 06:59:00,57.7,54.5,30.12,SW,225,0.0,0.0,89,0.00,,---,0.04,VWS V14.01,2013-06-07 20:59:00,
2013-06-08 07:04:00,57.7,54.5,30.12,SSW,202,0.0,0.0,89,0.00,,---,0.04,VWS V14.01,2013-06-07 21:04:00,
2013-06-08 07:09:00,57.7,54.5,30.12,WSW,248,2.0,2.0,89,0.00,,---,0.04,VWS V14.01,2013-06-07 21:09:00,
2013-06-08 07:14:00,57.7,54.5,30.12,SSE,158,1.6,2.0,89,0.00,,---,0.04,VWS V14.01,2013-06-07 21:14:00,
2013-06-08 07:19:00,57.7,54.5,30.12,ESE,112,1.6,1.6,89,0.00,,---,0.04,VWS V14.01,2013-06-07 21:19:00,
2013-06-08 07:24:00,57.7,54.5,30.12,South,180,1.3,1.3,89,0.00,,---,0.04,VWS V14.01,2013-06-07 21:24:00,
2013-06-08 07:29:00,57.7,54.5,30.12,SSE,158,0.0,0.0,89,0.00,,---,0.04,VWS V14.01,2013-06-07 21:29:00,
2013-06-08 07:34:00,57.7,54.5,30.12,SE,135,0.0,0.0,89,0.00,,---,0.04,VWS V14.01,2013-06-07 21:34:00,
2013-06-08 07:39:00,57.7,54.5,30.15,South,180,0.0,0.0,89,0.00,,---,0.04,VWS V14.01,2013-06-07 21:39:00,
2013-06-08 07:44:00,57.7,54.5,30.15,SE,135,1.3,1.3,89,0.00,,---,0.04,VWS V14.01,2013-06-07 21:44:00,
2013-06-08 07:49:00,57.7,54.5,30.15,ESE,112,0.0,2.5,89,0.00,,---,0.04,VWS V14.01,2013-06-07 21:49:00,
2013-06-08 07:54:00,57.7,54.8,30.15,SSE,158,0.0,1.3,90,0.00,,---,0.04,VWS V14.01,2013-06-07 21:54:00,
2013-06-08 07:59:00,57.7,54.8,30.15,ESE,112,2.9,3.1,90,0.00,,---,0.04,VWS V14.01,2013-06-07 21:59:00,
2013-06-08 08:04:00,57.7,54.8,30.15,SE,135,2.0,2.0,90,0.00,,---,0.04,VWS V14.01,2013-06-07 22:04:00,
2013-06-08 08:09:00,57.9,55.0,30.15,ESE,112,1.3,2.0,90,0.00,,---,0.04,VWS V14.01,2013-06-07 22:09:00,
2013-06-08 08:14:00,57.9,55.0,30.15,South,180,1.6,1.6,90,0.00,,---,0.04,VWS V14.01,2013-06-07 22:14:00,
2013-06-08 08:19:00,58.1,55.5,30.15,SE,135,0.9,0.9,91,0.00,,---,0.04,VWS V14.01,2013-06-07 22:19:00,
2013-06-08 08:24:00,58.1,55.5,30.15,SSE,158,1.1,1.6,91,0.00,,---,0.04,VWS V14.01,2013-06-07 22:24:00,
2013-06-08 08:29:00,58.1,55.5,30.15,SE,135,1.6,1.6,91,0.00,,---,0.04,VWS V14.01,2013-06-07 22:29:00,
2013-06-08 08:34:00,58.3,55.7,30.15,South,180,2.0,2.0,91,0.00,,---,0.04,VWS V14.01,2013-06-07 22:34:00,
2013-06-08 08:39:00,58.3,55.7,30.15,SSE,158,0.0,1.3,91,0.00,,---,0.04,VWS V14.01,2013-06-07 22:39:00,
2013-06-08 08:44:00,58.5,55.8,30.15,SE,135,0.9,0.9,91,0.00,,---,0.04,VWS V14.01,2013-06-07 22:44:00,
2013-06-08 08:49:00,58.6,56.3,30.15,SSE,158,2.5,2.5,92,0.00,,---,0.04,VWS V14.01,2013-06-07 22:49:00,
2013-06-08 08:54:00,58.6,56.3,30.15,SSW,202,2.5,2.5,92,0.00,,---,0.04,VWS V14.01,2013-06-07 22:54:00,
2013-06-08 08:59:00,58.6,56.3,30.15,South,180,3.4,3.4,92,0.00,,---,0.04,VWS V14.01,2013-06-07 22:59:00,
2013-06-08 09:04:00,58.6,56.3,30.15,ESE,112,1.3,2.0,92,0.00,,---,0.04,VWS V14.01,2013-06-07 23:04:00,
2013-06-08 09:10:00,58.6,56.3,30.15,South,180,1.6,1.6,92,0.00,,---,0.04,VWS V14.01,2013-06-07 23:10:00,
2013-06-08 09:15:00,58.8,56.5,30.15,SE,135,0.0,0.0,92,0.00,,---,0.04,VWS V14.01,2013-06-07 23:15:00,
2013-06-08 09:20:00,59.0,56.4,30.15,SW,225,2.2,3.8,91,0.00,,---,0.04,VWS V14.01,2013-06-07 23:20:00,
2013-06-08 09:25:00,59.4,56.7,30.15,South,180,1.6,1.6,91,0.00,,---,0.04,VWS V14.01,2013-06-07 23:25:00,
2013-06-08 09:30:00,59.4,56.7,30.15,South,180,2.0,2.0,91,0.00,,---,0.04,VWS V14.01,2013-06-07 23:30:00,
2013-06-08 09:35:00,59.5,56.9,30.15,SE,135,1.6,1.6,91,0.00,,---,0.04,VWS V14.01,2013-06-07 23:35:00,
2013-06-08 09:40:00,59.5,56.9,30.15,WSW,248,1.1,1.1,91,0.00,,---,0.04,VWS V14.01,2013-06-07 23:40:00,
2013-06-08 09:45:00,59.7,57.1,30.15,East,90,0.0,0.0,91,0.00,,---,0.04,VWS V14.01,2013-06-07 23:45:00,
2013-06-08 09:50:00,59.9,57.3,30.15,SE,135,2.7,2.7,91,0.00,,---,0.04,VWS V14.01,2013-06-07 23:50:00,
2013-06-08 09:55:00,59.7,56.8,30.15,ESE,112,0.0,0.9,90,0.00,,---,0.04,VWS V14.01,2013-06-07 23:55:00,
2013-06-08 10:00:00,60.1,56.8,30.15,ENE,68,1.1,2.5,89,0.00,,---,0.04,VWS V14.01,2013-06-08 00:00:00,
2013-06-08 10:05:00,60.3,57.0,30.18,SE,135,2.0,2.9,89,0.00,,---,0.04,VWS V14.01,2013-06-08 00:05:00,
2013-06-08 10:10:00,60.1,56.8,30.18,SE,135,1.1,3.4,89,0.00,,---,0.04,VWS V14.01,2013-06-08 00:10:00,
2013-06-08 10:15:00,60.1,56.8,30.18,ESE,112,2.5,2.5,89,0.00,,---,0.04,VWS V14.01,2013-06-08 00:15:00,
2013-06-08 10:20:00,60.3,57.0,30.15,South,180,1.6,1.6,89,0.00,,---,0.04,VWS V14.01,2013-06-08 00:20:00,
2013-06-08 10:25:00,60.4,57.2,30.15,South,180,1.6,2.2,89,0.00,,---,0.04,VWS V14.01,2013-06-08 00:25:00,
2013-06-08 10:30:00,60.6,57.0,30.15,South,180,1.1,2.2,88,0.00,,---,0.04,VWS V14.01,2013-06-08 00:30:00,
2013-06-08 10:35:00,60.6,57.0,30.15,South,180,3.1,3.1,88,0.00,,---,0.04,VWS V14.01,2013-06-08 00:35:00,
2013-06-08 10:40:00,60.8,56.6,30.15,SE,135,2.7,2.7,86,0.00,,---,0.04,VWS V14.01,2013-06-08 00:40:00,
2013-06-08 10:45:00,61.0,56.1,30.15,South,180,1.6,1.6,84,0.00,,---,0.04,VWS V14.01,2013-06-08 00:45:00,
2013-06-08 10:51:00,61.2,56.3,30.15,SSW,202,2.7,3.1,84,0.00,,---,0.04,VWS V14.01,2013-06-08 00:51:00,
2013-06-08 10:56:00,61.2,56.3,30.15,ESE,112,2.2,3.4,84,0.00,,---,0.04,VWS V14.01,2013-06-08 00:56:00,
2013-06-08 11:01:00,61.2,56.0,30.15,SW,225,2.2,2.2,83,0.00,,---,0.04,VWS V14.01,2013-06-08 01:01:00,
2013-06-08 11:06:00,61.3,56.1,30.15,SSE,158,0.0,0.0,83,0.00,,---,0.04,VWS V14.01,2013-06-08 01:06:00,
2013-06-08 11:11:00,61.7,56.5,30.15,SSW,202,0.9,1.1,83,0.00,,---,0.04,VWS V14.01,2013-06-08 01:11:00,
2013-06-08 11:16:00,61.9,56.7,30.15,SW,225,1.1,1.1,83,0.00,,---,0.04,VWS V14.01,2013-06-08 01:16:00,
2013-06-08 11:21:00,61.9,56.7,30.15,SSW,202,2.9,2.9,83,0.00,,---,0.04,VWS V14.01,2013-06-08 01:21:00,
2013-06-08 11:26:00,62.1,56.5,30.15,West,270,2.5,2.5,82,0.00,,---,0.04,VWS V14.01,2013-06-08 01:26:00,
2013-06-08 11:31:00,62.2,56.7,30.15,South,180,2.5,2.5,82,0.00,,---,0.04,VWS V14.01,2013-06-08 01:31:00,
2013-06-08 11:36:00,62.4,56.9,30.15,WNW,292,4.7,4.7,82,0.00,,---,0.04,VWS V14.01,2013-06-08 01:36:00,
2013-06-08 11:41:00,62.6,56.7,30.15,SSW,202,2.0,2.0,81,0.00,,---,0.04,VWS V14.01,2013-06-08 01:41:00,
2013-06-08 11:46:00,63.0,57.0,30.15,SW,225,0.0,2.5,81,0.00,,---,0.04,VWS V14.01,2013-06-08 01:46:00,
2013-06-08 11:51:00,63.0,56.7,30.15,WNW,292,2.7,2.7,80,0.00,,---,0.04,VWS V14.01,2013-06-08 01:51:00,
2013-06-08 11:56:00,63.1,56.9,30.15,SW,225,2.5,2.5,80,0.00,,---,0.04,VWS V14.01,2013-06-08 01:56:00,
2013-06-08 12:01:00,63.3,57.0,30.15,SW,225,1.1,1.1,80,0.00,,---,0.04,VWS V14.01,2013-06-08 02:01:00,
2013-06-08 12:07:00,63.3,56.7,30.15,SSE,158,1.1,1.6,79,0.00,,---,0.04,VWS V14.01,2013-06-08 02:07:00,
2013-06-08 12:11:00,63.7,56.7,30.15,SW,225,2.0,2.0,78,0.00,,---,0.04,VWS V14.01,2013-06-08 02:11:00,
2013-06-08 12:16:00,64.2,57.2,30.15,SW,225,2.5,2.5,78,0.00,,---,0.04,VWS V14.01,2013-06-08 02:16:00,
2013-06-08 12:22:00,64.4,57.0,30.12,SE,135,1.3,2.0,77,0.00,,---,0.04,VWS V14.01,2013-06-08 02:22:00,
2013-06-08 12:27:00,64.0,56.7,30.12,SE,135,0.0,1.1,77,0.00,,---,0.04,VWS V14.01,2013-06-08 02:27:00,
2013-06-08 12:32:00,63.5,56.5,30.12,NE,45,0.9,2.9,78,0.00,,---,0.04,VWS V14.01,2013-06-08 02:32:00,
2013-06-08 12:37:00,63.1,55.8,30.12,ESE,112,0.9,1.6,77,0.00,,---,0.04,VWS V14.01,2013-06-08 02:37:00,
2013-06-08 12:42:00,63.1,55.8,30.12,North,0,0.0,2.7,77,0.00,,---,0.04,VWS V14.01,2013-06-08 02:42:00,
2013-06-08 12:47:00,63.3,56.0,30.12,ESE,112,2.7,3.8,77,0.00,,---,0.04,VWS V14.01,2013-06-08 02:47:00,
2013-06-08 12:52:00,63.1,54.0,30.12,SE,135,6.0,6.0,72,0.00,,---,0.04,VWS V14.01,2013-06-08 02:52:00,
2013-06-08 12:57:00,63.0,53.0,30.12,ENE,68,2.0,2.2,70,0.00,,---,0.04,VWS V14.01,2013-06-08 02:57:00,
2013-06-08 13:02:00,63.0,54.2,30.12,SSE,158,1.3,2.7,73,0.00,,---,0.04,VWS V14.01,2013-06-08 03:02:00,
2013-06-08 13:07:00,63.1,54.3,30.12,ENE,68,0.0,1.3,73,0.00,,---,0.04,VWS V14.01,2013-06-08 03:07:00,
2013-06-08 13:12:00,63.3,54.5,30.12,East,90,1.3,1.3,73,0.00,,---,0.04,VWS V14.01,2013-06-08 03:12:00,
2013-06-08 13:17:00,63.1,53.6,30.12,SE,135,2.7,2.7,71,0.00,,---,0.04,VWS V14.01,2013-06-08 03:17:00,
2013-06-08 13:22:00,63.0,53.4,30.12,ESE,112,0.0,0.9,71,0.00,,---,0.04,VWS V14.01,2013-06-08 03:22:00,
2013-06-08 13:27:00,63.1,53.2,30.12,ESE,112,0.0,0.0,70,0.00,,---,0.04,VWS V14.01,2013-06-08 03:27:00,
2013-06-08 13:32:00,63.3,53.4,30.12,NE,45,0.9,0.9,70,0.00,,---,0.04,VWS V14.01,2013-06-08 03:32:00,
2013-06-08 13:37:00,63.5,53.9,30.12,East,90,0.0,0.0,71,0.00,,---,0.04,VWS V14.01,2013-06-08 03:37:00,
2013-06-08 13:42:00,63.3,53.8,30.12,SE,135,0.0,2.0,71,0.00,,---,0.04,VWS V14.01,2013-06-08 03:42:00,
2013-06-08 13:47:00,63.3,53.4,30.12,NE,45,3.6,3.6,70,0.00,,---,0.04,VWS V14.01,2013-06-08 03:47:00,
2013-06-08 13:52:00,63.0,52.6,30.09,North,0,1.1,1.1,69,0.00,,---,0.04,VWS V14.01,2013-06-08 03:52:00,
2013-06-08 13:57:00,62.8,52.5,30.09,East,90,0.0,0.0,69,0.00,,---,0.04,VWS V14.01,2013-06-08 03:57:00,
2013-06-08 14:01:00,62.8,52.5,30.09,East,90,1.6,1.6,69,0.00,,---,0.04,VWS V14.01,2013-06-08 04:01:00,
2013-06-08 14:02:00,62.8,52.5,30.09,ESE,112,2.0,2.0,69,0.00,,---,0.04,VWS V14.01,2013-06-08 04:02:00,
2013-06-08 14:07:00,62.8,52.5,30.09,East,90,0.0,0.0,69,0.00,,---,0.04,VWS V14.01,2013-06-08 04:07:00,
2013-06-08 14:12:00,62.8,52.9,30.09,ENE,68,1.1,1.3,70,0.00,,---,0.04,VWS V14.01,2013-06-08 04:12:00,
2013-06-08 14:17:00,62.6,52.3,30.09,ENE,68,0.0,1.6,69,0.00,,---,0.04,VWS V14.01,2013-06-08 04:17:00,
2013-06-08 14:22:00,62.4,52.1,30.09,ENE,68,0.0,0.0,69,0.00,,---,0.04,VWS V14.01,2013-06-08 04:22:00,
2013-06-08 14:27:00,62.4,52.1,30.09,NE,45,0.0,0.9,69,0.00,,---,0.04,VWS V14.01,2013-06-08 04:27:00,
2013-06-08 14:32:00,62.2,51.6,30.09,East,90,0.0,0.0,68,0.00,,---,0.04,VWS V14.01,2013-06-08 04:32:00,
2013-06-08 14:37:00,62.4,51.7,30.09,SE,135,1.6,1.6,68,0.00,,---,0.04,VWS V14.01,2013-06-08 04:37:00,
2013-06-08 14:42:00,62.4,51.3,30.09,WSW,248,1.3,1.3,67,0.00,,---,0.04,VWS V14.01,2013-06-08 04:42:00,
2013-06-08 14:47:00,62.2,51.6,30.09,SE,135,0.0,0.0,68,0.00,,---,0.04,VWS V14.01,2013-06-08 04:47:00,
2013-06-08 14:52:00,62.2,51.2,30.09,ENE,68,0.0,0.0,67,0.00,,---,0.04,VWS V14.01,2013-06-08 04:52:00,
2013-06-08 14:57:00,62.4,51.7,30.09,East,90,0.0,0.0,68,0.00,,---,0.04,VWS V14.01,2013-06-08 04:57:00,
2013-06-08 15:02:00,62.2,52.0,30.09,ESE,112,0.0,0.0,69,0.00,,---,0.04,VWS V14.01,2013-06-08 05:02:00,
2013-06-08 15:07:00,62.2,51.6,30.09,East,90,0.9,0.9,68,0.00,,---,0.04,VWS V14.01,2013-06-08 05:07:00,
2013-06-08 15:12:00,62.2,51.6,30.09,East,90,1.3,1.3,68,0.00,,---,0.04,VWS V14.01,2013-06-08 05:12:00,
2013-06-08 15:17:00,62.1,51.4,30.09,East,90,0.0,0.0,68,0.00,,---,0.04,VWS V14.01,2013-06-08 05:17:00,
2013-06-08 15:22:00,62.1,51.0,30.09,East,90,0.0,0.0,67,0.00,,---,0.04,VWS V14.01,2013-06-08 05:22:00,
2013-06-08 15:27:00,62.1,51.0,30.09,SE,135,0.0,0.0,67,0.00,,---,0.04,VWS V14.01,2013-06-08 05:27:00,
2013-06-08 15:32:00,61.9,51.2,30.09,East,90,0.0,2.7,68,0.00,,---,0.04,VWS V14.01,2013-06-08 05:32:00,
2013-06-08 15:37:00,61.9,51.2,30.09,East,90,0.0,0.0,68,0.00,,---,0.04,VWS V14.01,2013-06-08 05:37:00,
2013-06-08 15:42:00,61.9,51.2,30.09,East,90,0.0,0.0,68,0.00,,---,0.04,VWS V14.01,2013-06-08 05:42:00,
2013-06-08 15:47:00,61.9,51.2,30.09,SE,135,1.6,1.6,68,0.00,,---,0.04,VWS V14.01,2013-06-08 05:47:00,
2013-06-08 15:52:00,61.7,51.0,30.09,SE,135,2.9,2.9,68,0.00,,---,0.04,VWS V14.01,2013-06-08 05:52:00,
2013-06-08 15:57:00,61.7,51.0,30.09,East,90,0.0,0.0,68,0.00,,---,0.04,VWS V14.01,2013-06-08 05:57:00,
2013-06-08 16:02:00,61.5,51.3,30.09,East,90,0.0,0.0,69,0.00,,---,0.04,VWS V14.01,2013-06-08 06:02:00,
2013-06-08 16:07:00,61.5,50.9,30.09,East,90,0.0,0.0,68,0.00,,---,0.04,VWS V14.01,2013-06-08 06:07:00,
2013-06-08 16:12:00,61.3,51.1,30.09,East,90,0.0,0.0,69,0.00,,---,0.04,VWS V14.01,2013-06-08 06:12:00,
2013-06-08 16:17:00,61.3,51.1,30.09,SE,135,0.0,0.0,69,0.00,,---,0.04,VWS V14.01,2013-06-08 06:17:00,
2013-06-08 16:22:00,61.3,51.1,30.09,ESE,112,0.9,1.1,69,0.00,,---,0.04,VWS V14.01,2013-06-08 06:22:00,
2013-06-08 16:27:00,61.2,50.9,30.09,ESE,112,0.0,0.0,69,0.00,,---,0.04,VWS V14.01,2013-06-08 06:27:00,
2013-06-08 16:32:00,61.2,50.9,30.09,North,0,0.0,0.0,69,0.00,,---,0.04,VWS V14.01,2013-06-08 06:32:00,
2013-06-08 16:37:00,61.0,50.8,30.09,ENE,68,0.0,0.0,69,0.00,,---,0.04,VWS V14.01,2013-06-08 06:37:00,
2013-06-08 16:42:00,61.0,51.1,30.09,ENE,68,0.0,0.0,70,0.00,,---,0.04,VWS V14.01,2013-06-08 06:42:00,
2013-06-08 16:47:00,60.8,51.0,30.09,ENE,68,0.0,0.0,70,0.00,,---,0.04,VWS V14.01,2013-06-08 06:47:00,
2013-06-08 16:52:00,60.8,51.0,30.09,ENE,68,0.0,0.0,70,0.00,,---,0.04,VWS V14.01,2013-06-08 06:52:00,
2013-06-08 16:57:00,60.8,51.3,30.09,ENE,68,0.0,0.0,71,0.00,,---,0.04,VWS V14.01,2013-06-08 06:57:00,
2013-06-08 17:02:00,60.6,51.2,30.09,NE,45,0.0,0.0,71,0.00,,---,0.04,VWS V14.01,2013-06-08 07:02:00,
2013-06-08 17:07:00,60.6,51.2,30.09,North,0,0.0,0.0,71,0.00,,---,0.04,VWS V14.01,2013-06-08 07:07:00,
2013-06-08 17:12:00,60.6,51.2,30.09,NE,45,0.0,0.0,71,0.00,,---,0.04,VWS V14.01,2013-06-08 07:12:00,
2013-06-08 17:17:00,60.4,51.0,30.09,NNE,22,0.0,0.0,71,0.00,,---,0.04,VWS V14.01,2013-06-08 07:17:00,
2013-06-08 17:22:00,60.4,51.0,30.09,NNE,22,0.0,0.0,71,0.00,,---,0.04,VWS V14.01,2013-06-08 07:22:00,
2013-06-08 17:27:00,60.4,51.0,30.09,North,0,0.0,0.0,71,0.00,,---,0.04,VWS V14.01,2013-06-08 07:27:00,
2013-06-08 17:32:00,60.4,51.0,30.09,North,0,0.0,0.0,71,0.00,,---,0.04,VWS V14.01,2013-06-08 07:32:00,
2013-06-08 17:37:00,60.3,50.8,30.09,NNE,22,0.0,0.0,71,0.00,,---,0.04,VWS V14.01,2013-06-08 07:37:00,
2013-06-08 17:42:00,60.3,50.8,30.09,NNE,22,0.0,0.0,71,0.00,,---,0.04,VWS V14.01,2013-06-08 07:42:00,
2013-06-08 17:47:00,60.3,50.8,30.09,NNE,22,0.0,0.0,71,0.00,,---,0.04,VWS V14.01,2013-06-08 07:47:00,
2013-06-08 17:52:00,60.3,50.8,30.09,NNE,22,1.3,1.3,71,0.00,,---,0.04,VWS V14.01,2013-06-08 07:52:00,
2013-06-08 17:57:00,60.3,50.8,30.09,NNE,22,0.0,0.0,71,0.00,,---,0.04,VWS V14.01,2013-06-08 07:57:00,
2013-06-08 18:02:00,60.1,50.7,30.09,NE,45,0.0,0.0,71,0.00,,---,0.04,VWS V14.01,2013-06-08 08:02:00,
2013-06-08 18:07:00,60.1,50.7,30.09,East,90,0.0,0.0,71,0.00,,---,0.04,VWS V14.01,2013-06-08 08:07:00,
2013-06-08 18:12:00,60.1,50.7,30.09,SE,135,0.0,0.0,71,0.00,,---,0.04,VWS V14.01,2013-06-08 08:12:00,
2013-06-08 18:17:00,60.1,50.7,30.09,East,90,2.0,2.0,71,0.00,,---,0.04,VWS V14.01,2013-06-08 08:17:00,
2013-06-08 18:22:00,59.9,50.1,30.12,NNE,22,1.1,1.1,70,0.00,,---,0.04,VWS V14.01,2013-06-08 08:22:00,
2013-06-08 18:27:00,59.9,50.9,30.12,NE,45,0.0,0.0,72,0.00,,---,0.04,VWS V14.01,2013-06-08 08:27:00,
2013-06-08 18:32:00,59.9,50.9,30.12,East,90,0.0,0.0,72,0.00,,---,0.04,VWS V14.01,2013-06-08 08:32:00,
2013-06-08 18:37:00,60.1,51.0,30.12,ENE,68,0.0,0.0,72,0.00,,---,0.04,VWS V14.01,2013-06-08 08:37:00,
2013-06-08 18:42:00,60.1,51.0,30.12,ESE,112,0.0,0.0,72,0.00,,---,0.04,VWS V14.01,2013-06-08 08:42:00,
2013-06-08 18:47:00,60.1,51.0,30.12,East,90,0.0,0.0,72,0.00,,---,0.04,VWS V14.01,2013-06-08 08:47:00,
2013-06-08 18:52:00,60.3,51.2,30.12,NNE,22,1.1,1.1,72,0.00,,---,0.04,VWS V14.01,2013-06-08 08:52:00,
2013-06-08 18:57:00,60.3,51.2,30.12,NE,45,0.0,0.0,72,0.00,,---,0.04,VWS V14.01,2013-06-08 08:57:00,
2013-06-08 19:02:00,60.4,51.4,30.12,East,90,1.1,1.1,72,0.00,,---,0.04,VWS V14.01,2013-06-08 09:02:00,
2013-06-08 19:07:00,60.6,51.6,30.12,NE,45,1.6,1.6,72,0.00,,---,0.04,VWS V14.01,2013-06-08 09:07:00,
2013-06-08 19:12:00,60.6,51.6,30.12,North,0,0.0,0.0,72,0.00,,---,0.04,VWS V14.01,2013-06-08 09:12:00,
2013-06-08 19:17:00,60.6,51.2,30.12,North,0,0.0,0.0,71,0.00,,---,0.04,VWS V14.01,2013-06-08 09:17:00,
2013-06-08 19:22:00,60.6,51.2,30.12,SE,135,0.9,0.9,71,0.00,,---,0.04,VWS V14.01,2013-06-08 09:22:00,
2013-06-08 19:27:00,60.6,51.2,30.12,NNW,338,1.1,1.1,71,0.00,,---,0.04,VWS V14.01,2013-06-08 09:27:00,
2013-06-08 19:32:00,60.4,50.6,30.12,SE,135,2.0,2.0,70,0.00,,---,0.04,VWS V14.01,2013-06-08 09:32:00,
2013-06-08 19:37:00,60.4,50.2,30.12,North,0,0.0,0.0,69,0.00,,---,0.04,VWS V14.01,2013-06-08 09:37:00,
2013-06-08 19:42:00,60.3,50.5,30.12,NE,45,0.0,0.0,70,0.00,,---,0.04,VWS V14.01,2013-06-08 09:42:00,
2013-06-08 19:47:00,60.3,50.5,30.12,NW,315,1.3,2.0,70,0.00,,---,0.04,VWS V14.01,2013-06-08 09:47:00,
2013-06-08 19:52:00,60.3,50.8,30.12,NW,315,2.5,2.5,71,0.00,,---,0.04,VWS V14.01,2013-06-08 09:52:00,
2013-06-08 19:57:00,60.3,50.8,30.12,North,0,0.9,2.0,71,0.00,,---,0.04,VWS V14.01,2013-06-08 09:57:00,
2013-06-08 20:02:00,60.3,50.8,30.12,NNE,22,1.1,1.1,71,0.00,,---,0.04,VWS V14.01,2013-06-08 10:02:00,
2013-06-08 20:07:00,60.1,50.7,30.12,NE,45,0.0,0.0,71,0.00,,---,0.04,VWS V14.01,2013-06-08 10:07:00,
2013-06-08 20:12:00,59.9,50.5,30.12,ESE,112,0.0,0.0,71,0.00,,---,0.04,VWS V14.01,2013-06-08 10:12:00,
2013-06-08 20:17:00,59.7,50.7,30.12,NE,45,0.0,0.0,72,0.00,,---,0.04,VWS V14.01,2013-06-08 10:17:00,
2013-06-08 20:22:00,59.7,50.7,30.12,ENE,68,0.9,0.9,72,0.00,,---,0.04,VWS V14.01,2013-06-08 10:22:00,
2013-06-08 20:27:00,59.7,50.7,30.12,ESE,112,2.7,2.7,72,0.00,,---,0.04,VWS V14.01,2013-06-08 10:27:00,
2013-06-08 20:32:00,59.5,50.5,30.12,NE,45,1.1,1.1,72,0.00,,---,0.04,VWS V14.01,2013-06-08 10:32:00,
2013-06-08 20:37:00,59.5,50.5,30.12,ENE,68,2.7,2.7,72,0.00,,---,0.04,VWS V14.01,2013-06-08 10:37:00,
2013-06-08 20:42:00,59.7,50.7,30.12,South,180,1.3,1.3,72,0.00,,---,0.04,VWS V14.01,2013-06-08 10:42:00,
2013-06-08 20:47:00,59.7,50.3,30.12,North,0,2.2,2.2,71,0.00,,---,0.04,VWS V14.01,2013-06-08 10:47:00,
2013-06-08 20:52:00,59.7,50.3,30.12,ENE,68,3.1,3.1,71,0.00,,---,0.04,VWS V14.01,2013-06-08 10:52:00,
2013-06-08 20:57:00,59.7,50.3,30.12,ENE,68,0.0,0.0,71,0.00,,---,0.04,VWS V14.01,2013-06-08 10:57:00,
2013-06-08 21:02:00,59.7,50.3,30.12,NE,45,1.6,1.6,71,0.00,,---,0.04,VWS V14.01,2013-06-08 11:02:00,
2013-06-08 21:07:00,59.7,50.3,30.12,NW,315,0.9,0.9,71,0.00,,---,0.04,VWS V14.01,2013-06-08 11:07:00,
2013-06-08 21:12:00,59.7,50.3,30.12,East,90,0.0,0.0,71,0.00,,---,0.04,VWS V14.01,2013-06-08 11:12:00,
2013-06-08 21:17:00,59.5,50.1,30.12,East,90,0.0,0.0,71,0.00,,---,0.04,VWS V14.01,2013-06-08 11:17:00,
2013-06-08 21:22:00,59.5,50.1,30.12,East,90,0.0,0.0,71,0.00,,---,0.04,VWS V14.01,2013-06-08 11:22:00,
2013-06-08 21:27:00,59.4,50.0,30.12,East,90,0.0,0.0,71,0.00,,---,0.04,VWS V14.01,2013-06-08 11:27:00,
2013-06-08 21:32:00,59.4,50.0,30.12,East,90,0.0,0.0,71,0.00,,---,0.04,VWS V14.01,2013-06-08 11:32:00,
2013-06-08 21:37:00,59.2,49.8,30.12,NW,315,1.1,1.6,71,0.00,,---,0.04,VWS V14.01,2013-06-08 11:37:00,
2013-06-08 21:42:00,59.2,49.8,30.12,WNW,292,1.3,1.3,71,0.00,,---,0.04,VWS V14.01,2013-06-08 11:42:00,
2013-06-08 21:47:00,59.2,50.2,30.12,NW,315,0.0,0.0,72,0.00,,---,0.04,VWS V14.01,2013-06-08 11:47:00,
2013-06-08 21:52:00,59.2,50.2,30.12,NW,315,0.0,0.0,72,0.00,,---,0.04,VWS V14.01,2013-06-08 11:52:00,
2013-06-08 21:57:00,59.4,50.3,30.12,WNW,292,0.0,0.0,72,0.00,,---,0.04,VWS V14.01,2013-06-08 11:57:00,
2013-06-08 22:02:00,59.2,50.2,30.12,WNW,292,0.0,0.0,72,0.00,,---,0.04,VWS V14.01,2013-06-08 12:02:00,
2013-06-08 22:07:00,59.2,50.2,30.12,NW,315,1.3,1.3,72,0.00,,---,0.04,VWS V14.01,2013-06-08 12:07:00,
2013-06-08 22:12:00,59.2,50.2,30.12,NW,315,0.9,0.9,72,0.00,,---,0.04,VWS V14.01,2013-06-08 12:12:00,
2013-06-08 22:17:00,59.2,50.2,30.12,NW,315,1.6,1.6,72,0.00,,---,0.04,VWS V14.01,2013-06-08 12:17:00,
2013-06-08 22:22:00,59.2,50.2,30.12,NW,315,1.1,1.1,72,0.00,,---,0.04,VWS V14.01,2013-06-08 12:22:00,
2013-06-08 22:27:00,59.2,50.2,30.12,NW,315,0.9,1.1,72,0.00,,---,0.04,VWS V14.01,2013-06-08 12:27:00,
2013-06-08 22:32:00,59.2,50.2,30.12,NW,315,0.0,0.0,72,0.00,,---,0.04,VWS V14.01,2013-06-08 12:32:00,
2013-06-08 22:37:00,59.2,50.2,30.12,NW,315,0.0,0.0,72,0.00,,---,0.04,VWS V14.01,2013-06-08 12:37:00,
2013-06-08 22:42:00,59.2,50.2,30.12,NW,315,0.0,0.0,72,0.00,,---,0.04,VWS V14.01,2013-06-08 12:42:00,
2013-06-08 22:47:00,59.0,50.0,30.12,NNW,338,0.9,0.9,72,0.00,,---,0.04,VWS V14.01,2013-06-08 12:47:00,
2013-06-08 22:52:00,59.0,50.0,30.12,NNW,338,0.0,0.0,72,0.00,,---,0.04,VWS V14.01,2013-06-08 12:52:00,
2013-06-08 22:57:00,58.8,50.2,30.12,NNW,338,0.0,0.0,73,0.00,,---,0.04,VWS V14.01,2013-06-08 12:57:00,
2013-06-08 23:02:00,58.8,50.2,30.12,WNW,292,2.7,3.8,73,0.00,,---,0.04,VWS V14.01,2013-06-08 13:02:00,
2013-06-08 23:07:00,58.8,50.6,30.12,NNW,338,2.0,2.0,74,0.00,,---,0.04,VWS V14.01,2013-06-08 13:07:00,
2013-06-08 23:12:00,58.6,50.4,30.12,NNW,338,1.6,1.6,74,0.00,,---,0.04,VWS V14.01,2013-06-08 13:12:00,
2013-06-08 23:17:00,58.6,50.4,30.12,NW,315,1.6,1.6,74,0.00,,---,0.04,VWS V14.01,2013-06-08 13:17:00,
2013-06-08 23:22:00,58.5,50.2,30.12,NW,315,1.3,1.3,74,0.00,,---,0.04,VWS V14.01,2013-06-08 13:22:00,
2013-06-08 23:27:00,58.5,50.2,30.12,NW,315,0.0,0.0,74,0.00,,---,0.04,VWS V14.01,2013-06-08 13:27:00,
2013-06-08 23:32:00,58.5,50.2,30.12,NW,315,0.0,0.0,74,0.00,,---,0.04,VWS V14.01,2013-06-08 13:32:00,
2013-06-08 23:37:00,58.3,50.0,30.12,NNW,338,0.0,0.0,74,0.00,,---,0.04,VWS V14.01,2013-06-08 13:37:00,
2013-06-08 23:42:00,58.3,50.0,30.12,NNW,338,1.1,1.1,74,0.00,,---,0.04,VWS V14.01,2013-06-08 13:42:00,
2013-06-08 23:47:00,58.3,50.0,30.12,NW,315,1.1,1.3,74,0.00,,---,0.04,VWS V14.01,2013-06-08 13:47:00,
2013-06-08 23:52:00,58.1,49.9,30.12,NNW,338,0.9,0.9,74,0.00,,---,0.04,VWS V14.01,2013-06-08 13:52:00,
2013-06-08 23:57:00,57.9,49.7,30.12,NNW,338,0.0,0.0,74,0.00,,---,0.00,VWS V14.01,2013-06-08 13:57:00,